Time;durP1;ratioP1;P1;durP2;ratioP2;P2;SDS_P1;SDS_P2;PMS_P1;PMS_P2;Temp;Humidity;BMP_temperature;BMP_pressure;BME280_temperature;BME280_humidity;BME280_pressure;Samples;Min_cycle;Max_cycle;Signal;HPM_P1;HPM_P2
2022/01/04 00:00:12;;;;;;;112.20;49.92;;;8.60;99.90;;;;;;4861235;29;20105;-74
2022/01/04 00:02:37;;;;;;;110.20;50.90;;;8.60;99.90;;;;;;4861520;29;20022;-76
2022/01/04 00:05:04;;;;;;;113.53;52.05;;;8.60;99.90;;;;;;4861124;29;20443;-75
2022/01/04 00:07:31;;;;;;;117.93;50.80;;;8.60;99.90;;;;;;4861230;29;20046;-76
2022/01/04 00:09:57;;;;;;;103.03;48.30;;;8.60;99.90;;;;;;4860558;29;20604;-74
2022/01/04 00:15:08;;;;;;;108.10;50.08;;;8.60;99.90;;;;;;4860897;29;20391;-74
2022/01/04 00:17:34;;;;;;;109.35;51.83;;;8.60;99.90;;;;;;4861184;29;20121;-75
2022/01/04 00:20:00;;;;;;;102.90;48.65;;;8.60;99.90;;;;;;4859851;29;20170;-75
2022/01/04 00:22:26;;;;;;;100.82;49.33;;;8.60;99.90;;;;;;4860738;29;20403;-77
2022/01/04 00:24:51;;;;;;;100.60;49.33;;;8.60;99.90;;;;;;4860575;29;20054;-75
2022/01/04 00:27:17;;;;;;;109.75;49.90;;;8.60;99.90;;;;;;4861247;29;20041;-75
2022/01/04 00:29:43;;;;;;;104.60;50.55;;;8.60;99.90;;;;;;4860907;29;20459;-76
2022/01/04 00:32:09;;;;;;;107.68;49.47;;;8.60;99.90;;;;;;4861166;29;20032;-75
2022/01/04 00:34:35;;;;;;;104.82;48.53;;;8.50;99.90;;;;;;4860794;29;20029;-76
2022/01/04 00:37:01;;;;;;;110.30;49.95;;;8.50;99.90;;;;;;4860951;29;20029;-75
2022/01/04 00:39:26;;;;;;;106.72;49.15;;;8.50;99.90;;;;;;4859010;29;20050;-75
2022/01/04 00:41:52;;;;;;;101.97;49.03;;;8.50;99.90;;;;;;4861059;29;20402;-76
2022/01/04 00:44:18;;;;;;;109.40;49.33;;;8.50;99.90;;;;;;4860977;29;20446;-75
2022/01/04 00:46:44;;;;;;;96.85;49.25;;;8.50;99.90;;;;;;4860786;29;20089;-75
2022/01/04 00:49:10;;;;;;;106.50;49.63;;;8.50;99.90;;;;;;4860527;29;20032;-76
2022/01/04 00:51:41;;;;;;;105.60;49.85;;;8.50;99.90;;;;;;4859315;29;20057;-76
2022/01/04 00:54:07;;;;;;;107.97;51.60;;;8.50;99.90;;;;;;4858786;29;20104;-75
2022/01/04 00:56:33;;;;;;;114.97;52.78;;;8.50;99.90;;;;;;4859416;29;20079;-76
2022/01/04 00:58:59;;;;;;;109.65;50.70;;;8.50;99.90;;;;;;4860565;29;20470;-75
2022/01/04 01:01:25;;;;;;;112.22;52.25;;;8.50;99.90;;;;;;4860381;29;20036;-75
2022/01/04 01:03:51;;;;;;;103.28;51.00;;;8.50;99.90;;;;;;4860380;29;20030;-75
2022/01/04 01:06:17;;;;;;;107.68;51.95;;;8.60;99.90;;;;;;4860384;29;20085;-74
2022/01/04 01:08:43;;;;;;;108.10;51.63;;;8.60;99.90;;;;;;4860371;29;20398;-76
2022/01/04 01:11:09;;;;;;;113.60;54.55;;;8.50;99.90;;;;;;4859199;29;20025;-75
2022/01/04 01:13:36;;;;;;;107.35;52.45;;;8.60;99.90;;;;;;4860466;29;20029;-75
2022/01/04 01:16:02;;;;;;;110.32;51.70;;;8.60;99.90;;;;;;4860237;29;20065;-76
2022/01/04 01:18:28;;;;;;;98.68;50.15;;;8.50;99.90;;;;;;4860381;29;20033;-75
2022/01/04 01:20:54;;;;;;;116.93;53.58;;;8.60;99.90;;;;;;4859761;29;20026;-76
2022/01/04 01:23:22;;;;;;;125.00;55.78;;;8.60;99.90;;;;;;4860689;29;20034;-76
2022/01/04 01:25:49;;;;;;;112.90;53.10;;;8.60;99.90;;;;;;4860157;29;20053;-76
2022/01/04 01:28:16;;;;;;;115.57;53.33;;;8.60;99.90;;;;;;4859811;29;20053;-76
2022/01/04 01:30:43;;;;;;;116.35;54.47;;;8.60;99.90;;;;;;4860212;29;20021;-74
2022/01/04 01:33:10;;;;;;;117.85;54.08;;;8.60;99.90;;;;;;4860567;29;20025;-75
2022/01/04 01:35:37;;;;;;;120.80;57.13;;;8.60;99.90;;;;;;4860485;29;20032;-73
2022/01/04 01:38:04;;;;;;;123.38;57.40;;;8.50;99.90;;;;;;4860109;29;20053;-75
2022/01/04 01:40:30;;;;;;;113.40;54.83;;;8.50;99.90;;;;;;4858947;29;20032;-76
2022/01/04 01:42:56;;;;;;;137.32;59.47;;;8.50;99.90;;;;;;4860374;29;20029;-75
2022/01/04 01:45:23;;;;;;;118.70;55.03;;;8.50;99.90;;;;;;4860334;29;20479;-75
2022/01/04 01:47:50;;;;;;;121.18;56.20;;;8.50;99.90;;;;;;4860273;29;20050;-75
2022/01/04 01:50:16;;;;;;;116.93;53.22;;;8.50;99.90;;;;;;4860092;29;20391;-75
2022/01/04 01:52:44;;;;;;;109.28;52.22;;;8.50;99.90;;;;;;4859870;29;20038;-76
2022/01/04 01:55:10;;;;;;;124.20;56.50;;;8.50;99.90;;;;;;4858694;29;20120;-76
2022/01/04 01:57:37;;;;;;;119.45;56.05;;;8.50;99.90;;;;;;4859949;29;20068;-73
2022/01/04 02:00:06;;;;;;;110.85;54.50;;;8.50;99.90;;;;;;4859553;29;20056;-75
2022/01/04 02:02:32;;;;;;;125.60;55.85;;;8.50;99.90;;;;;;4860212;29;20037;-75
2022/01/04 02:04:58;;;;;;;125.97;57.78;;;8.50;99.90;;;;;;4860215;29;20025;-75
2022/01/04 02:07:24;;;;;;;134.10;59.60;;;8.40;99.90;;;;;;4859835;29;20098;-76
2022/01/04 02:10:12;;;;;;;129.95;59.55;;;8.40;99.90;;;;;;4859754;29;20081;-75
2022/01/04 02:12:46;;;;;;;135.30;58.95;;;8.40;99.90;;;;;;4859976;29;20041;-75
2022/01/04 02:15:15;;;;;;;137.75;59.40;;;8.40;99.90;;;;;;4858864;29;20087;-76
2022/01/04 02:17:41;;;;;;;133.20;60.97;;;8.30;99.90;;;;;;4860332;29;20038;-76
2022/01/04 02:20:08;;;;;;;141.85;62.45;;;8.20;99.90;;;;;;4859931;29;20030;-74
2022/01/04 02:22:34;;;;;;;142.48;62.33;;;8.10;99.90;;;;;;4860211;29;20081;-76
2022/01/04 02:25:00;;;;;;;150.65;65.03;;;8.10;99.90;;;;;;4865162;29;20131;-76
2022/01/04 02:27:26;;;;;;;154.10;63.58;;;8.10;99.90;;;;;;4843920;29;20045;-76
2022/01/04 02:29:52;;;;;;;149.68;62.20;;;8.10;99.90;;;;;;4860716;29;20030;-75
2022/01/04 02:32:18;;;;;;;142.48;61.40;;;8.10;99.90;;;;;;4861854;29;20109;-76
2022/01/04 02:34:49;;;;;;;130.32;58.58;;;8.10;99.90;;;;;;4864473;29;20030;-74
2022/01/04 02:37:23;;;;;;;145.30;63.35;;;8.10;99.90;;;;;;4864239;29;20053;-76
2022/01/04 02:39:49;;;;;;;139.63;61.70;;;8.00;99.90;;;;;;4864074;29;20022;-76
2022/01/04 02:42:15;;;;;;;159.52;63.47;;;8.00;99.90;;;;;;4864388;29;20030;-74
2022/01/04 02:44:41;;;;;;;153.27;63.58;;;8.00;99.90;;;;;;4863872;29;20119;-75
2022/01/04 02:47:07;;;;;;;158.85;68.40;;;8.00;99.90;;;;;;4863876;29;20395;-75
2022/01/04 02:49:33;;;;;;;137.77;60.60;;;8.00;99.90;;;;;;4863992;29;20032;-76
2022/01/04 02:51:59;;;;;;;140.93;59.88;;;8.00;99.90;;;;;;4863616;29;20033;-76
2022/01/04 02:54:25;;;;;;;131.57;58.95;;;8.00;99.90;;;;;;4863260;29;20096;-76
2022/01/04 02:56:51;;;;;;;144.50;62.15;;;8.10;99.90;;;;;;4862898;29;20108;-76
2022/01/04 02:59:16;;;;;;;140.18;60.58;;;8.10;99.90;;;;;;4862514;29;20029;-75
2022/01/04 03:01:42;;;;;;;146.65;59.25;;;8.10;99.90;;;;;;4862532;29;20021;-76
2022/01/04 03:04:09;;;;;;;151.30;62.20;;;8.10;99.90;;;;;;4862944;29;20033;-76
2022/01/04 03:06:35;;;;;;;145.43;64.57;;;8.10;99.90;;;;;;4862668;29;20519;-76
2022/01/04 03:09:03;;;;;;;142.15;62.95;;;8.10;99.90;;;;;;4862437;29;20105;-75
2022/01/04 03:11:28;;;;;;;148.07;62.60;;;8.00;99.90;;;;;;4862606;29;20033;-75
2022/01/04 03:13:54;;;;;;;154.45;64.32;;;8.00;99.90;;;;;;4862325;29;20029;-76
2022/01/04 03:16:20;;;;;;;144.18;63.15;;;8.00;99.90;;;;;;4862371;29;20038;-75
2022/01/04 03:19:03;;;;;;;155.55;64.35;;;8.00;99.90;;;;;;4862474;29;20445;-76
2022/01/04 03:21:35;;;;;;;144.55;62.42;;;8.00;99.90;;;;;;4861311;29;20408;-76
2022/01/04 03:24:03;;;;;;;146.50;62.65;;;8.10;99.90;;;;;;4862327;29;20034;-75
2022/01/04 03:26:29;;;;;;;137.93;61.92;;;8.10;99.90;;;;;;4880853;29;20041;-75
2022/01/04 03:28:56;;;;;;;139.07;59.72;;;8.10;99.90;;;;;;4880534;29;20025;-75
2022/01/04 03:31:21;;;;;;;143.25;61.75;;;8.10;99.90;;;;;;4880459;29;20037;-75
2022/01/04 03:33:47;;;;;;;152.35;62.20;;;8.10;99.90;;;;;;4880449;29;20026;-74
2022/01/04 03:36:14;;;;;;;154.32;62.83;;;8.00;99.90;;;;;;4880614;29;20033;-75
2022/01/04 03:38:41;;;;;;;144.85;61.28;;;8.00;99.90;;;;;;4880744;29;20116;-75
2022/01/04 03:41:08;;;;;;;159.75;63.38;;;8.00;99.90;;;;;;4880718;29;20112;-76
2022/01/04 03:43:37;;;;;;;151.40;61.85;;;8.00;99.90;;;;;;4880010;29;20072;-75
2022/01/04 03:46:04;;;;;;;137.60;59.53;;;8.00;99.90;;;;;;4879993;29;20017;-76
2022/01/04 03:48:29;;;;;;;142.13;60.53;;;8.00;99.90;;;;;;4880089;29;20397;-75
2022/01/04 03:50:55;;;;;;;144.65;59.13;;;8.10;99.90;;;;;;4880102;29;20017;-75
2022/01/04 03:53:21;;;;;;;144.20;61.28;;;8.00;99.90;;;;;;4880386;29;20088;-74
2022/01/04 03:55:46;;;;;;;145.25;60.67;;;8.00;99.90;;;;;;4880189;29;20036;-74
2022/01/04 03:58:12;;;;;;;147.13;63.45;;;8.00;99.90;;;;;;4880312;29;20029;-74
2022/01/04 04:00:38;;;;;;;148.68;61.10;;;8.10;99.90;;;;;;4880438;29;20037;-75
2022/01/04 04:03:03;;;;;;;161.95;62.25;;;8.10;99.90;;;;;;4880087;29;20032;-75
2022/01/04 04:05:29;;;;;;;135.27;57.65;;;8.10;99.90;;;;;;4879786;29;20033;-75
2022/01/04 04:07:55;;;;;;;148.85;61.38;;;8.10;99.90;;;;;;4879996;29;20037;-75
2022/01/04 04:10:20;;;;;;;150.40;62.53;;;8.10;99.90;;;;;;4879770;29;20497;-75
2022/01/04 04:12:46;;;;;;;133.15;61.20;;;8.10;99.90;;;;;;4880185;29;20036;-75
2022/01/04 04:15:12;;;;;;;141.05;60.58;;;8.10;99.90;;;;;;4880066;29;20040;-76
2022/01/04 04:17:38;;;;;;;145.27;57.80;;;8.10;99.90;;;;;;4880031;29;20497;-76
2022/01/04 04:20:04;;;;;;;137.23;57.42;;;8.10;99.90;;;;;;4879706;29;20025;-76
2022/01/04 04:22:31;;;;;;;141.55;58.47;;;8.10;99.90;;;;;;4879741;29;20532;-76
2022/01/04 04:24:56;;;;;;;145.00;62.67;;;8.10;99.90;;;;;;4872447;29;20081;-76
2022/01/04 04:27:22;;;;;;;148.02;60.88;;;8.10;99.90;;;;;;4861230;29;20076;-76
2022/01/04 04:29:48;;;;;;;146.82;59.92;;;8.10;99.90;;;;;;4861090;29;20096;-75
2022/01/04 04:32:13;;;;;;;136.95;54.92;;;8.10;99.90;;;;;;4861197;29;20026;-76
2022/01/04 04:34:39;;;;;;;139.13;56.80;;;8.10;99.90;;;;;;4861104;29;20108;-75
2022/01/04 04:37:05;;;;;;;131.48;54.92;;;8.10;99.90;;;;;;4861046;29;20033;-76
2022/01/04 04:39:31;;;;;;;136.82;58.10;;;8.00;99.90;;;;;;4860752;29;20038;-75
2022/01/04 04:41:57;;;;;;;150.63;58.78;;;8.00;99.90;;;;;;4844081;29;20053;-75
2022/01/04 04:44:23;;;;;;;130.48;55.13;;;8.10;99.90;;;;;;4860810;29;20479;-73
2022/01/04 04:46:49;;;;;;;141.60;57.08;;;8.10;99.90;;;;;;4860686;29;20120;-76
2022/01/04 04:49:15;;;;;;;130.80;55.35;;;8.10;99.90;;;;;;4859077;29;20030;-75
2022/01/04 04:51:41;;;;;;;135.18;54.15;;;8.10;99.90;;;;;;4859478;29;20037;-75
2022/01/04 04:54:07;;;;;;;124.57;53.97;;;8.10;99.90;;;;;;4860963;29;20033;-74
2022/01/04 04:56:34;;;;;;;122.13;52.00;;;8.10;99.90;;;;;;4861077;29;20060;-74
2022/01/04 04:59:00;;;;;;;121.15;52.95;;;8.10;99.90;;;;;;4860535;29;20048;-74
2022/01/04 05:01:26;;;;;;;123.82;52.88;;;8.20;99.90;;;;;;4844123;29;20398;-75
2022/01/04 05:03:52;;;;;;;119.65;52.13;;;8.20;99.90;;;;;;4860803;29;20029;-75
2022/01/04 05:06:18;;;;;;;132.40;55.30;;;8.20;99.90;;;;;;4860469;29;20085;-75
2022/01/04 05:08:44;;;;;;;124.32;50.78;;;8.20;99.90;;;;;;4859156;29;20034;-76
2022/01/04 05:11:10;;;;;;;122.63;50.70;;;8.20;99.90;;;;;;4859159;29;20032;-74
2022/01/04 05:13:35;;;;;;;122.95;51.65;;;8.20;99.90;;;;;;4860703;29;20029;-75
2022/01/04 05:16:01;;;;;;;127.07;52.88;;;8.20;99.90;;;;;;4859849;29;20037;-75
2022/01/04 05:18:28;;;;;;;135.32;54.95;;;8.20;99.90;;;;;;4860365;29;20033;-75
2022/01/04 05:20:53;;;;;;;133.63;54.17;;;8.20;99.90;;;;;;4859908;29;20034;-74
2022/01/04 05:23:19;;;;;;;130.60;54.28;;;8.20;99.90;;;;;;4859987;29;20531;-75
2022/01/04 05:25:45;;;;;;;134.90;57.70;;;8.20;99.90;;;;;;4858893;29;20121;-74
2022/01/04 05:28:11;;;;;;;137.52;56.30;;;8.20;99.90;;;;;;4859993;29;20041;-75
2022/01/04 05:30:36;;;;;;;122.22;53.67;;;8.20;99.90;;;;;;4859124;29;20033;-73
2022/01/04 05:33:02;;;;;;;134.57;56.42;;;8.20;99.90;;;;;;4860334;29;20034;-75
2022/01/04 05:35:28;;;;;;;124.25;53.53;;;8.20;99.90;;;;;;4860344;29;20021;-75
2022/01/04 05:37:54;;;;;;;126.50;53.83;;;8.30;99.90;;;;;;4860315;29;20443;-76
2022/01/04 05:40:20;;;;;;;119.10;51.35;;;8.30;99.90;;;;;;4860330;29;20024;-75
2022/01/04 05:42:45;;;;;;;132.40;53.60;;;8.20;99.90;;;;;;4860162;29;20033;-72
2022/01/04 05:45:11;;;;;;;129.85;53.00;;;8.20;99.90;;;;;;4860409;29;20029;-75
2022/01/04 05:47:37;;;;;;;134.55;53.65;;;8.20;99.90;;;;;;4860065;29;20375;-75
2022/01/04 05:50:05;;;;;;;119.22;49.22;;;8.20;99.90;;;;;;4860384;29;20026;-74
2022/01/04 05:52:32;;;;;;;120.28;51.08;;;8.20;99.90;;;;;;4860072;29;20026;-75
2022/01/04 05:54:58;;;;;;;130.27;53.58;;;8.10;99.90;;;;;;4860169;29;20029;-75
2022/01/04 05:57:24;;;;;;;100.55;43.65;;;8.20;99.90;;;;;;4843587;29;20073;-73
2022/01/04 05:59:49;;;;;;;110.05;47.30;;;8.20;99.90;;;;;;4860413;29;20037;-74
2022/01/04 06:02:15;;;;;;;101.97;44.88;;;8.20;99.90;;;;;;4860324;29;20029;-76
2022/01/04 06:04:41;;;;;;;114.00;47.05;;;8.20;99.90;;;;;;4860003;29;20530;-75
2022/01/04 06:07:06;;;;;;;100.72;44.28;;;8.20;99.90;;;;;;4860277;29;20049;-75
2022/01/04 06:09:41;;;;;;;103.10;44.30;;;8.20;99.90;;;;;;4863741;29;20618;-75
2022/01/04 06:14:50;;;;;;;111.30;47.00;;;8.20;99.90;;;;;;4863462;29;20033;-75
2022/01/04 06:14:54;;;;;;;96.32;42.15;;;8.20;99.90;;;;;;4863161;29;20248;-75
2022/01/04 06:17:47;;;;;;;101.90;43.40;;;8.20;99.90;;;;;;4863447;29;20093;-75
2022/01/04 06:20:16;;;;;;;87.30;41.13;;;8.20;99.90;;;;;;4854433;29;20033;-76
2022/01/04 06:22:42;;;;;;;83.72;39.80;;;8.20;99.90;;;;;;4863375;29;20053;-75
2022/01/04 06:25:11;;;;;;;67.32;32.70;;;8.20;99.90;;;;;;4862885;29;20081;-76
2022/01/04 06:27:37;;;;;;;63.28;32.45;;;8.10;99.90;;;;;;4863157;29;20410;-74
2022/01/04 06:30:04;;;;;;;64.13;34.72;;;8.10;99.90;;;;;;4863444;29;20033;-74
2022/01/04 06:32:30;;;;;;;65.70;34.33;;;8.10;99.90;;;;;;4863314;29;20029;-77
2022/01/04 06:34:56;;;;;;;67.80;36.10;;;8.10;99.90;;;;;;4861727;29;20074;-73
2022/01/04 06:37:21;;;;;;;79.72;36.58;;;8.10;99.90;;;;;;4863315;29;20098;-72
2022/01/04 06:39:47;;;;;;;59.55;32.53;;;8.10;99.90;;;;;;4863088;29;20053;-74
2022/01/04 06:42:13;;;;;;;59.47;32.78;;;8.10;99.90;;;;;;4863032;29;20368;-73
2022/01/04 06:44:41;;;;;;;64.38;36.42;;;8.10;99.90;;;;;;4863137;29;20064;-72
2022/01/04 06:47:07;;;;;;;58.03;34.50;;;8.20;99.90;;;;;;4862711;29;20042;-74
2022/01/04 06:49:34;;;;;;;54.20;30.23;;;8.20;99.90;;;;;;4862258;29;20030;-74
2022/01/04 06:52:00;;;;;;;55.35;29.25;;;8.20;99.90;;;;;;4862818;29;20510;-75
2022/01/04 06:54:25;;;;;;;52.92;30.23;;;8.30;99.90;;;;;;4863030;29;20030;-74
2022/01/04 06:56:51;;;;;;;51.28;28.58;;;8.30;99.90;;;;;;4862364;29;20045;-73
2022/01/04 06:59:18;;;;;;;55.35;30.65;;;8.30;99.90;;;;;;4862191;29;20021;-74
2022/01/04 07:01:44;;;;;;;49.45;27.13;;;8.30;99.90;;;;;;4862547;29;20030;-73
2022/01/04 07:04:10;;;;;;;50.05;28.55;;;8.30;99.90;;;;;;4861533;29;20108;-76
2022/01/04 07:06:36;;;;;;;45.67;26.33;;;8.30;99.90;;;;;;4862517;29;20526;-74
2022/01/04 07:09:03;;;;;;;50.67;28.20;;;8.30;99.90;;;;;;4862617;29;20033;-76
2022/01/04 07:11:29;;;;;;;45.28;23.88;;;8.30;99.90;;;;;;4861645;29;20025;-76
2022/01/04 07:13:55;;;;;;;45.60;26.83;;;8.30;99.90;;;;;;4862072;29;20041;-75
2022/01/04 07:16:21;;;;;;;46.50;26.48;;;8.30;99.90;;;;;;4861216;29;20033;-75
2022/01/04 07:18:48;;;;;;;50.45;26.85;;;8.30;99.90;;;;;;4860274;29;20025;-74
2022/01/04 07:21:15;;;;;;;46.60;25.90;;;8.30;99.90;;;;;;4862128;29;20124;-73
2022/01/04 07:23:43;;;;;;;50.28;28.10;;;8.30;99.90;;;;;;4861277;29;20138;-74
2022/01/04 07:26:14;;;;;;;58.97;27.65;;;8.30;99.90;;;;;;4862386;29;20053;-73
2022/01/04 07:28:42;;;;;;;53.05;27.48;;;8.30;99.90;;;;;;4862557;29;20036;-73
2022/01/04 07:31:08;;;;;;;53.20;26.23;;;8.30;99.90;;;;;;4862568;29;20065;-73
2022/01/04 07:33:34;;;;;;;41.72;25.58;;;8.40;99.90;;;;;;4862319;29;20450;-74
2022/01/04 07:36:01;;;;;;;41.08;25.40;;;8.40;99.90;;;;;;4862445;29;20116;-73
2022/01/04 07:38:27;;;;;;;40.85;23.30;;;8.40;99.90;;;;;;4862240;29;20034;-74
2022/01/04 07:40:53;;;;;;;44.53;24.67;;;8.40;99.90;;;;;;4845941;29;20082;-74
2022/01/04 07:43:18;;;;;;;49.90;28.27;;;8.40;99.90;;;;;;4862194;29;20033;-73
2022/01/04 07:45:44;;;;;;;43.47;26.27;;;8.40;99.90;;;;;;4862116;29;20104;-73
2022/01/04 07:48:10;;;;;;;38.70;24.02;;;8.50;99.90;;;;;;4862192;29;20148;-74
2022/01/04 07:50:43;;;;;;;44.75;25.40;;;8.40;99.90;;;;;;4862123;29;20033;-75
2022/01/04 07:53:09;;;;;;;41.88;23.77;;;8.40;99.90;;;;;;4861853;29;20471;-74
2022/01/04 07:55:35;;;;;;;45.10;25.45;;;8.40;99.90;;;;;;4861903;29;20085;-76
2022/01/04 07:58:01;;;;;;;45.47;24.33;;;8.40;99.90;;;;;;4861962;29;20036;-76
2022/01/04 08:00:27;;;;;;;35.20;21.80;;;8.40;99.90;;;;;;4845232;29;20116;-73
2022/01/04 08:02:54;;;;;;;36.05;23.08;;;8.40;99.90;;;;;;4862006;29;20079;-75
2022/01/04 08:05:20;;;;;;;37.75;22.15;;;8.40;99.90;;;;;;4861867;29;20189;-74
2022/01/04 08:07:46;;;;;;;37.38;22.42;;;8.40;99.90;;;;;;4861705;29;20371;-73
2022/01/04 08:10:13;;;;;;;39.42;23.95;;;8.50;99.90;;;;;;4861970;29;20029;-73
2022/01/04 08:12:39;;;;;;;40.00;23.08;;;8.50;99.90;;;;;;4861763;29;20089;-74
2022/01/04 08:15:06;;;;;;;41.75;24.17;;;8.50;99.90;;;;;;4861568;29;20025;-74
2022/01/04 08:17:32;;;;;;;42.30;24.25;;;8.50;99.90;;;;;;4861542;29;20035;-75
2022/01/04 08:19:59;;;;;;;44.50;24.40;;;8.50;99.90;;;;;;4861526;29;20060;-73
2022/01/04 08:22:25;;;;;;;46.30;24.80;;;8.50;99.90;;;;;;4861575;29;20029;-74
2022/01/04 08:24:50;;;;;;;45.70;25.20;;;8.50;99.90;;;;;;4861610;29;20060;-73
2022/01/04 08:27:17;;;;;;;43.60;24.98;;;8.50;99.90;;;;;;4860315;29;20038;-72
2022/01/04 08:29:42;;;;;;;46.30;25.23;;;8.50;99.90;;;;;;4861407;29;20120;-76
2022/01/04 08:32:08;;;;;;;44.38;25.55;;;8.60;99.90;;;;;;4860119;29;20108;-74
2022/01/04 08:34:34;;;;;;;42.35;25.58;;;8.60;99.90;;;;;;4862999;29;20113;-75
2022/01/04 08:37:00;;;;;;;47.03;28.30;;;8.60;99.90;;;;;;4872390;29;20026;-74
2022/01/04 08:39:27;;;;;;;51.65;31.30;;;8.60;99.90;;;;;;4861339;29;20407;-74
2022/01/04 08:41:59;;;;;;;56.80;33.97;;;8.60;99.90;;;;;;4861349;29;20029;-74
2022/01/04 08:44:25;;;;;;;54.50;32.88;;;8.60;99.90;;;;;;4860568;29;20036;-73
2022/01/04 08:46:52;;;;;;;53.25;32.30;;;8.60;99.90;;;;;;4865553;29;20116;-75
2022/01/04 08:49:18;;;;;;;60.50;34.25;;;8.60;99.90;;;;;;4860701;29;20030;-77
2022/01/04 08:51:45;;;;;;;61.33;34.47;;;8.60;99.90;;;;;;4859337;29;20036;-79
2022/01/04 08:54:11;;;;;;;66.18;35.85;;;8.60;99.90;;;;;;4860439;29;20037;-74
2022/01/04 08:56:37;;;;;;;62.88;35.90;;;8.60;99.90;;;;;;4860102;29;20414;-72
2022/01/04 08:59:05;;;;;;;63.10;34.70;;;8.60;99.90;;;;;;4859655;29;20145;-72
2022/01/04 09:01:32;;;;;;;64.03;35.20;;;8.60;99.90;;;;;;4859842;29;20073;-73
2022/01/04 09:03:58;;;;;;;71.72;38.70;;;8.60;99.90;;;;;;4859697;29;20025;-72
2022/01/04 09:06:24;;;;;;;62.63;33.88;;;8.60;99.90;;;;;;4859293;29;20042;-76
2022/01/04 09:08:54;;;;;;;63.03;34.38;;;8.60;99.90;;;;;;4867521;29;20057;-77
2022/01/04 09:11:21;;;;;;;63.50;34.15;;;8.60;99.90;;;;;;4862641;29;20382;-75
2022/01/04 09:13:48;;;;;;;68.32;37.22;;;8.60;99.90;;;;;;4862653;29;20531;-76
2022/01/04 09:18:58;;;;;;;69.03;38.20;;;8.70;99.90;;;;;;4860244;29;20547;-75
2022/01/04 09:21:27;;;;;;;72.50;36.90;;;8.70;99.90;;;;;;4860292;29;20014;-77
2022/01/04 09:23:55;;;;;;;65.47;35.22;;;8.70;99.90;;;;;;4860462;29;20029;-74
2022/01/04 09:26:21;;;;;;;63.40;34.30;;;8.70;99.90;;;;;;4862180;29;20053;-76
2022/01/04 09:28:47;;;;;;;60.97;33.40;;;8.70;99.90;;;;;;4859614;29;20033;-78
2022/01/04 09:31:13;;;;;;;57.97;33.28;;;8.80;99.90;;;;;;4859819;29;20109;-72
2022/01/04 09:33:39;;;;;;;61.92;34.10;;;8.80;99.90;;;;;;4860286;29;20034;-76
2022/01/04 09:36:05;;;;;;;64.00;32.42;;;8.80;99.90;;;;;;4860005;29;20025;-77
2022/01/04 09:38:31;;;;;;;61.58;32.00;;;8.80;99.90;;;;;;4860369;29;20032;-75
2022/01/04 09:40:57;;;;;;;74.55;33.20;;;8.80;99.90;;;;;;4860249;29;20025;-72
2022/01/04 09:43:24;;;;;;;56.17;30.02;;;8.80;99.90;;;;;;4862776;29;20046;-72
2022/01/04 09:45:51;;;;;;;59.92;30.63;;;8.80;99.90;;;;;;4863709;29;20113;-74
2022/01/04 09:48:19;;;;;;;57.38;30.75;;;8.80;99.90;;;;;;4864739;29;20491;-74
2022/01/04 09:50:45;;;;;;;55.55;29.10;;;8.80;99.90;;;;;;4864714;29;20108;-77
2022/01/04 09:53:19;;;;;;;53.63;29.40;;;8.80;99.90;;;;;;4863835;29;20030;-72
2022/01/04 09:55:47;;;;;;;53.90;29.75;;;8.80;99.90;;;;;;4863793;29;20391;-78
2022/01/04 09:58:12;;;;;;;58.97;31.85;;;8.80;99.90;;;;;;4863557;29;20034;-70
2022/01/04 10:00:38;;;;;;;51.88;29.02;;;8.80;99.90;;;;;;4863821;29;20084;-75
2022/01/04 10:03:14;;;;;;;57.47;30.42;;;8.80;99.90;;;;;;4863713;29;20022;-74
2022/01/04 10:05:40;;;;;;;61.22;30.77;;;8.80;99.90;;;;;;4863814;29;20032;-74
2022/01/04 10:08:08;;;;;;;65.82;31.00;;;8.80;99.90;;;;;;4863695;29;20029;-75
2022/01/04 10:10:35;;;;;;;56.38;30.08;;;8.80;99.90;;;;;;4863529;29;20025;-72
2022/01/04 10:13:08;;;;;;;61.38;30.38;;;8.80;99.90;;;;;;4861951;29;20398;-70
2022/01/04 10:15:40;;;;;;;52.00;28.60;;;8.80;99.90;;;;;;4881898;29;20398;-77
2022/01/04 10:18:28;;;;;;;49.58;27.73;;;8.80;99.90;;;;;;4882347;29;20029;-77
2022/01/04 10:21:02;;;;;;;56.15;28.60;;;8.80;99.90;;;;;;4881934;29;20072;-68
2022/01/04 10:23:28;;;;;;;50.22;27.50;;;8.80;99.90;;;;;;4881951;29;20025;-75
2022/01/04 10:26:05;;;;;;;56.08;31.48;;;8.80;99.90;;;;;;4881800;29;20049;-72
2022/01/04 10:28:41;;;;;;;70.72;32.35;;;8.80;99.90;;;;;;4881957;29;20033;-72
2022/01/04 10:31:09;;;;;;;63.28;32.00;;;8.80;99.90;;;;;;4881930;29;20034;-76
2022/01/04 10:33:36;;;;;;;61.95;32.55;;;8.80;99.90;;;;;;4882298;29;20164;-76
2022/01/04 10:36:11;;;;;;;64.13;33.70;;;8.80;99.90;;;;;;4881602;29;20047;-75
2022/01/04 10:38:40;;;;;;;60.10;31.27;;;8.80;99.90;;;;;;4881622;29;20431;-77
2022/01/04 10:41:11;;;;;;;65.25;34.67;;;8.80;99.90;;;;;;4881652;29;20039;-76
2022/01/04 10:44:02;;;;;;;77.38;42.70;;;8.80;99.90;;;;;;4881571;29;20078;-76
2022/01/04 10:46:31;;;;;;;88.83;44.47;;;8.80;99.90;;;;;;4881350;29;20041;-74
2022/01/04 10:48:57;;;;;;;86.10;44.45;;;8.80;99.90;;;;;;4871266;29;20120;-76
2022/01/04 10:51:23;;;;;;;67.32;34.13;;;8.70;99.90;;;;;;4864148;29;20117;-76
2022/01/04 10:53:55;;;;;;;66.25;33.72;;;8.70;99.90;;;;;;4862700;29;20039;-72
2022/01/04 10:56:37;;;;;;;65.18;34.08;;;8.80;99.90;;;;;;4862811;29;20120;-78
2022/01/04 10:59:07;;;;;;;69.35;37.05;;;8.80;99.90;;;;;;4862460;29;20029;-75
2022/01/04 11:01:41;;;;;;;66.47;33.95;;;8.80;99.90;;;;;;4862488;29;20070;-77
2022/01/04 11:04:15;;;;;;;67.68;33.40;;;8.80;99.90;;;;;;4861288;29;20471;-71
2022/01/04 11:06:41;;;;;;;68.68;31.60;;;8.80;99.90;;;;;;4862351;29;20040;-74
2022/01/04 11:09:08;;;;;;;56.30;28.95;;;8.80;99.90;;;;;;4861977;29;20068;-78
2022/01/04 11:11:34;;;;;;;57.92;30.50;;;8.80;99.90;;;;;;4861008;29;20053;-77
2022/01/04 11:14:01;;;;;;;60.72;31.63;;;8.80;99.90;;;;;;4861459;29;20068;-74
2022/01/04 11:16:28;;;;;;;69.57;34.28;;;8.80;99.90;;;;;;4861298;29;20128;-77
2022/01/04 11:18:55;;;;;;;64.78;32.65;;;8.80;99.90;;;;;;4861444;29;20028;-73
2022/01/04 11:21:31;;;;;;;57.72;32.08;;;8.80;99.90;;;;;;4861362;29;20029;-76
2022/01/04 11:23:59;;;;;;;60.38;30.10;;;8.80;99.90;;;;;;4861290;29;20026;-76
2022/01/04 11:26:27;;;;;;;79.38;42.60;;;8.80;99.90;;;;;;4861366;29;20474;-76
2022/01/04 11:28:54;;;;;;;86.18;50.63;;;8.80;99.90;;;;;;4861101;29;20419;-73
2022/01/04 11:31:38;;;;;;;70.00;35.25;;;8.70;99.90;;;;;;4860772;29;20364;-76
2022/01/04 11:34:04;;;;;;;77.47;39.75;;;8.80;99.90;;;;;;4864450;29;20051;-74
2022/01/04 11:36:34;;;;;;;74.35;37.17;;;8.70;99.90;;;;;;4861386;29;20226;-77
2022/01/04 11:39:00;;;;;;;76.40;38.63;;;8.70;99.90;;;;;;4861496;29;20032;-75
2022/01/04 11:41:35;;;;;;;65.78;33.00;;;8.70;99.90;;;;;;4860304;29;20502;-76
2022/01/04 11:44:24;;;;;;;69.88;32.25;;;8.60;99.90;;;;;;4861298;29;20037;-78
2022/01/04 11:47:09;;;;;;;58.40;31.45;;;8.60;99.90;;;;;;4859524;29;20047;-78
2022/01/04 11:49:38;;;;;;;71.80;32.78;;;8.70;99.90;;;;;;4862950;29;20043;-77
2022/01/04 11:52:11;;;;;;;67.43;33.50;;;8.70;99.90;;;;;;4860885;29;20562;-76
2022/01/04 11:54:37;;;;;;;62.80;31.70;;;8.80;99.90;;;;;;4860603;29;20030;-75
2022/01/04 11:57:18;;;;;;;62.50;33.42;;;8.80;99.90;;;;;;4863009;29;20081;-73
2022/01/04 11:59:47;;;;;;;65.55;34.45;;;8.80;99.90;;;;;;4863001;29;20098;-78
2022/01/04 12:02:26;;;;;;;67.30;33.80;;;8.80;99.90;;;;;;4863105;29;20117;-78
2022/01/04 12:04:53;;;;;;;64.05;33.72;;;8.80;99.90;;;;;;4860334;29;20450;-73
2022/01/04 12:07:45;;;;;;;65.10;35.25;;;8.90;99.90;;;;;;4862977;29;20065;-73
2022/01/04 12:10:22;;;;;;;74.25;34.13;;;8.90;99.90;;;;;;4862866;29;20026;-74
2022/01/04 12:13:04;;;;;;;70.22;35.55;;;8.90;99.90;;;;;;4860601;29;20093;-77
2022/01/04 12:15:33;;;;;;;72.03;33.92;;;8.90;99.90;;;;;;4863089;29;20021;-77
2022/01/04 12:18:03;;;;;;;64.07;33.08;;;8.90;99.90;;;;;;4860719;29;20026;-78
2022/01/04 12:20:48;;;;;;;62.28;33.72;;;9.00;99.90;;;;;;4860588;29;20056;-78
2022/01/04 12:23:37;;;;;;;66.47;34.13;;;9.00;99.90;;;;;;4860133;29;20445;-78
2022/01/04 12:26:02;;;;;;;63.60;32.17;;;9.00;99.90;;;;;;4852854;29;20056;-78
2022/01/04 12:28:47;;;;;;;66.47;32.20;;;9.00;99.90;;;;;;4860146;29;20041;-78
2022/01/04 12:31:19;;;;;;;59.20;31.73;;;9.00;99.90;;;;;;4860529;29;20034;-74
2022/01/04 12:33:56;;;;;;;70.07;33.70;;;9.00;99.90;;;;;;4859332;29;20121;-77
2022/01/04 12:36:33;;;;;;;55.88;30.77;;;9.10;99.90;;;;;;4860160;29;20033;-78
2022/01/04 12:39:02;;;;;;;67.22;34.83;;;9.10;99.90;;;;;;4859669;29;20086;-77
2022/01/04 12:41:30;;;;;;;60.92;32.13;;;9.10;99.90;;;;;;4862776;29;20014;-77